ブリスベン の空港の天気 - METARとTAF

ブリスベン空港 ( YBBN / BNE ) - オーストラリア クイーンズランド州ブリスベン
飛行場実況気象(Metar)
観測時間07/16 16:00 AEST (07/16 06:00 UTC)
風向・風速北北東 4m/s
視程10km以上
天気現象
なし
気温19℃
湿度35%
気圧1012hPa
METARYBBN 160600Z 03008KT CAVOK 19/03 Q1012
過去の天気等 Google飛行場航空写真 Wunderground天気予報

過去48時間のMETAR

飛行場予報(TAF)
発表時間: 7/16 15:12 AEST (7/16 05:12 UTC)
予報対象時間: 16日16時 AEST ~ 17日22時 AEST
風向・風速北北東 6m/s
視程10km以上
なし
16日19時 AEST から
風向・風速北北西 3m/s
視程10km以上
なし
16日22時 AEST から
風向・風速南西 4m/s
視程10km以上
なし
17日13時 AEST から
風向・風速北北東 4m/s
視程10km以上
なし
17日18時 AEST から
風向・風速不定 3m/s
視程10km以上
なし
TAF YBBN 160512Z 1606/1712 02012KT CAVOK
FM160900 34006KT CAVOK
FM161200 22007KT CAVOK
FM170300 03008KT CAVOK
FM170800 VRB05KT CAVOK